sensor_id;sensor_type;location;lat;lon;timestamp;P1;durP1;ratioP1;P2;durP2;ratioP2
13208;SDS011;6669;42.678;23.332;2023-02-28T00:01:25;9.90;;;7.40;;
13208;SDS011;6669;42.678;23.332;2023-02-28T00:03:54;9.43;;;7.00;;
13208;SDS011;6669;42.678;23.332;2023-02-28T00:06:23;9.20;;;7.33;;
13208;SDS011;6669;42.678;23.332;2023-02-28T00:08:51;8.80;;;7.10;;
13208;SDS011;6669;42.678;23.332;2023-02-28T00:11:19;10.00;;;7.17;;
13208;SDS011;6669;42.678;23.332;2023-02-28T00:13:47;10.53;;;7.43;;
13208;SDS011;6669;42.678;23.332;2023-02-28T00:16:16;9.47;;;7.30;;
13208;SDS011;6669;42.678;23.332;2023-02-28T00:18:47;10.43;;;7.37;;
13208;SDS011;6669;42.678;23.332;2023-02-28T00:21:16;11.50;;;8.20;;
13208;SDS011;6669;42.678;23.332;2023-02-28T00:23:45;9.00;;;7.23;;
13208;SDS011;6669;42.678;23.332;2023-02-28T00:26:13;9.70;;;7.27;;
13208;SDS011;6669;42.678;23.332;2023-02-28T00:28:42;8.80;;;7.03;;
13208;SDS011;6669;42.678;23.332;2023-02-28T00:31:09;10.23;;;7.17;;
13208;SDS011;6669;42.678;23.332;2023-02-28T00:33:37;11.90;;;7.70;;
13208;SDS011;6669;42.678;23.332;2023-02-28T00:36:08;11.37;;;7.63;;
13208;SDS011;6669;42.678;23.332;2023-02-28T00:38:38;11.77;;;7.73;;
13208;SDS011;6669;42.678;23.332;2023-02-28T00:41:08;12.00;;;7.73;;
13208;SDS011;6669;42.678;23.332;2023-02-28T00:43:37;11.90;;;7.90;;
13208;SDS011;6669;42.678;23.332;2023-02-28T00:46:05;12.10;;;8.40;;
13208;SDS011;6669;42.678;23.332;2023-02-28T00:48:34;11.10;;;8.00;;
13208;SDS011;6669;42.678;23.332;2023-02-28T00:51:02;9.67;;;7.83;;
13208;SDS011;6669;42.678;23.332;2023-02-28T00:53:31;10.87;;;7.50;;
13208;SDS011;6669;42.678;23.332;2023-02-28T00:56:00;10.70;;;7.93;;
13208;SDS011;6669;42.678;23.332;2023-02-28T00:58:34;10.50;;;7.77;;
13208;SDS011;6669;42.678;23.332;2023-02-28T01:01:05;11.43;;;7.83;;
13208;SDS011;6669;42.678;23.332;2023-02-28T01:03:33;11.20;;;8.37;;
13208;SDS011;6669;42.678;23.332;2023-02-28T01:06:02;11.50;;;8.17;;
13208;SDS011;6669;42.678;23.332;2023-02-28T01:08:31;9.57;;;7.80;;
13208;SDS011;6669;42.678;23.332;2023-02-28T01:11:06;10.50;;;8.30;;
13208;SDS011;6669;42.678;23.332;2023-02-28T01:13:35;10.90;;;7.97;;
13208;SDS011;6669;42.678;23.332;2023-02-28T01:16:03;12.77;;;8.80;;
13208;SDS011;6669;42.678;23.332;2023-02-28T01:18:31;11.20;;;8.87;;
13208;SDS011;6669;42.678;23.332;2023-02-28T01:21:02;11.53;;;8.47;;
13208;SDS011;6669;42.678;23.332;2023-02-28T01:23:32;14.40;;;9.03;;
13208;SDS011;6669;42.678;23.332;2023-02-28T01:26:03;12.03;;;8.33;;
13208;SDS011;6669;42.678;23.332;2023-02-28T01:28:32;12.67;;;8.90;;
13208;SDS011;6669;42.678;23.332;2023-02-28T01:31:00;11.20;;;8.43;;
13208;SDS011;6669;42.678;23.332;2023-02-28T01:33:29;14.33;;;9.67;;
13208;SDS011;6669;42.678;23.332;2023-02-28T01:35:57;14.87;;;9.60;;
13208;SDS011;6669;42.678;23.332;2023-02-28T01:38:26;12.97;;;9.77;;
13208;SDS011;6669;42.678;23.332;2023-02-28T01:40:55;13.87;;;10.07;;
13208;SDS011;6669;42.678;23.332;2023-02-28T01:43:25;13.07;;;9.43;;
13208;SDS011;6669;42.678;23.332;2023-02-28T01:45:54;13.97;;;9.33;;
13208;SDS011;6669;42.678;23.332;2023-02-28T01:48:24;11.47;;;8.83;;
13208;SDS011;6669;42.678;23.332;2023-02-28T01:50:56;13.37;;;9.77;;
13208;SDS011;6669;42.678;23.332;2023-02-28T01:53:30;12.80;;;9.60;;
13208;SDS011;6669;42.678;23.332;2023-02-28T01:56:03;12.67;;;9.00;;
13208;SDS011;6669;42.678;23.332;2023-02-28T01:58:34;12.93;;;9.60;;
13208;SDS011;6669;42.678;23.332;2023-02-28T02:01:03;15.23;;;10.23;;
13208;SDS011;6669;42.678;23.332;2023-02-28T02:03:32;14.60;;;10.07;;
13208;SDS011;6669;42.678;23.332;2023-02-28T02:05:59;12.17;;;9.47;;
13208;SDS011;6669;42.678;23.332;2023-02-28T02:08:29;13.37;;;10.00;;
13208;SDS011;6669;42.678;23.332;2023-02-28T02:10:57;12.90;;;9.33;;
13208;SDS011;6669;42.678;23.332;2023-02-28T02:13:37;13.30;;;10.10;;
13208;SDS011;6669;42.678;23.332;2023-02-28T02:16:28;14.77;;;9.97;;
13208;SDS011;6669;42.678;23.332;2023-02-28T02:19:08;14.37;;;10.13;;
13208;SDS011;6669;42.678;23.332;2023-02-28T02:22:08;13.80;;;9.57;;
13208;SDS011;6669;42.678;23.332;2023-02-28T02:31:02;14.07;;;10.30;;
13208;SDS011;6669;42.678;23.332;2023-02-28T02:37:04;13.10;;;9.83;;
13208;SDS011;6669;42.678;23.332;2023-02-28T02:39:44;16.43;;;10.70;;
13208;SDS011;6669;42.678;23.332;2023-02-28T02:42:17;15.47;;;10.70;;
13208;SDS011;6669;42.678;23.332;2023-02-28T02:44:55;14.53;;;10.93;;
13208;SDS011;6669;42.678;23.332;2023-02-28T02:47:29;16.23;;;11.20;;
13208;SDS011;6669;42.678;23.332;2023-02-28T02:49:59;15.43;;;11.70;;
13208;SDS011;6669;42.678;23.332;2023-02-28T02:52:34;17.33;;;11.17;;
13208;SDS011;6669;42.678;23.332;2023-02-28T02:55:07;20.87;;;12.10;;
13208;SDS011;6669;42.678;23.332;2023-02-28T02:57:38;18.67;;;12.00;;
13208;SDS011;6669;42.678;23.332;2023-02-28T03:00:13;18.23;;;11.83;;
13208;SDS011;6669;42.678;23.332;2023-02-28T03:02:43;18.00;;;12.23;;
13208;SDS011;6669;42.678;23.332;2023-02-28T03:05:15;16.17;;;10.87;;
13208;SDS011;6669;42.678;23.332;2023-02-28T03:07:48;15.73;;;10.73;;
13208;SDS011;6669;42.678;23.332;2023-02-28T03:10:30;18.17;;;11.33;;
13208;SDS011;6669;42.678;23.332;2023-02-28T03:13:05;19.00;;;11.50;;
13208;SDS011;6669;42.678;23.332;2023-02-28T03:15:54;18.03;;;11.00;;
13208;SDS011;6669;42.678;23.332;2023-02-28T03:18:34;19.70;;;12.00;;
13208;SDS011;6669;42.678;23.332;2023-02-28T03:21:10;19.03;;;11.93;;
13208;SDS011;6669;42.678;23.332;2023-02-28T03:23:48;16.43;;;11.97;;
13208;SDS011;6669;42.678;23.332;2023-02-28T03:26:24;16.40;;;11.23;;
13208;SDS011;6669;42.678;23.332;2023-02-28T03:29:00;19.27;;;11.30;;
13208;SDS011;6669;42.678;23.332;2023-02-28T03:31:32;16.63;;;11.20;;
13208;SDS011;6669;42.678;23.332;2023-02-28T03:34:06;18.00;;;11.30;;
13208;SDS011;6669;42.678;23.332;2023-02-28T03:36:38;16.53;;;11.27;;
13208;SDS011;6669;42.678;23.332;2023-02-28T03:39:13;16.27;;;10.63;;
13208;SDS011;6669;42.678;23.332;2023-02-28T03:41:45;17.73;;;11.70;;
13208;SDS011;6669;42.678;23.332;2023-02-28T03:44:19;15.00;;;10.43;;
13208;SDS011;6669;42.678;23.332;2023-02-28T03:46:52;17.03;;;11.77;;
13208;SDS011;6669;42.678;23.332;2023-02-28T03:49:25;16.93;;;11.40;;
13208;SDS011;6669;42.678;23.332;2023-02-28T03:51:58;18.57;;;11.70;;
13208;SDS011;6669;42.678;23.332;2023-02-28T03:54:30;17.03;;;10.87;;
13208;SDS011;6669;42.678;23.332;2023-02-28T03:57:02;16.97;;;11.20;;
13208;SDS011;6669;42.678;23.332;2023-02-28T03:59:36;17.57;;;11.10;;
13208;SDS011;6669;42.678;23.332;2023-02-28T04:02:07;14.27;;;10.73;;
13208;SDS011;6669;42.678;23.332;2023-02-28T04:04:35;17.93;;;11.30;;
13208;SDS011;6669;42.678;23.332;2023-02-28T04:07:04;16.87;;;11.33;;
13208;SDS011;6669;42.678;23.332;2023-02-28T04:09:35;17.50;;;11.87;;
13208;SDS011;6669;42.678;23.332;2023-02-28T04:12:03;17.17;;;11.80;;
13208;SDS011;6669;42.678;23.332;2023-02-28T04:14:31;18.20;;;11.60;;
13208;SDS011;6669;42.678;23.332;2023-02-28T04:16:59;18.50;;;11.73;;
13208;SDS011;6669;42.678;23.332;2023-02-28T04:19:27;18.67;;;12.00;;
13208;SDS011;6669;42.678;23.332;2023-02-28T04:21:55;20.33;;;12.30;;
13208;SDS011;6669;42.678;23.332;2023-02-28T04:24:23;23.20;;;13.23;;
13208;SDS011;6669;42.678;23.332;2023-02-28T04:26:54;19.93;;;13.17;;
13208;SDS011;6669;42.678;23.332;2023-02-28T04:29:24;18.37;;;12.13;;
13208;SDS011;6669;42.678;23.332;2023-02-28T04:31:55;18.43;;;11.60;;
13208;SDS011;6669;42.678;23.332;2023-02-28T04:34:24;19.20;;;10.73;;
13208;SDS011;6669;42.678;23.332;2023-02-28T04:36:54;18.87;;;11.37;;
13208;SDS011;6669;42.678;23.332;2023-02-28T04:39:38;15.60;;;10.57;;
13208;SDS011;6669;42.678;23.332;2023-02-28T04:42:07;16.50;;;9.67;;
13208;SDS011;6669;42.678;23.332;2023-02-28T04:44:35;16.77;;;10.77;;
13208;SDS011;6669;42.678;23.332;2023-02-28T04:47:03;37.83;;;21.73;;
13208;SDS011;6669;42.678;23.332;2023-02-28T04:49:31;24.13;;;15.97;;
13208;SDS011;6669;42.678;23.332;2023-02-28T04:51:59;16.23;;;11.77;;
13208;SDS011;6669;42.678;23.332;2023-02-28T04:54:28;20.30;;;12.53;;
13208;SDS011;6669;42.678;23.332;2023-02-28T04:56:56;16.40;;;11.60;;
13208;SDS011;6669;42.678;23.332;2023-02-28T04:59:25;16.40;;;11.07;;
13208;SDS011;6669;42.678;23.332;2023-02-28T05:01:53;17.20;;;12.03;;
13208;SDS011;6669;42.678;23.332;2023-02-28T05:04:21;17.50;;;12.17;;
13208;SDS011;6669;42.678;23.332;2023-02-28T05:06:49;25.80;;;14.43;;
13208;SDS011;6669;42.678;23.332;2023-02-28T05:09:17;21.53;;;13.23;;
13208;SDS011;6669;42.678;23.332;2023-02-28T05:11:45;17.43;;;11.80;;
13208;SDS011;6669;42.678;23.332;2023-02-28T05:14:13;22.67;;;12.17;;
13208;SDS011;6669;42.678;23.332;2023-02-28T05:16:43;18.17;;;11.13;;
13208;SDS011;6669;42.678;23.332;2023-02-28T05:19:10;20.83;;;11.13;;
13208;SDS011;6669;42.678;23.332;2023-02-28T05:21:39;23.07;;;11.73;;
13208;SDS011;6669;42.678;23.332;2023-02-28T05:24:09;19.03;;;12.63;;
13208;SDS011;6669;42.678;23.332;2023-02-28T05:26:39;19.23;;;11.77;;
13208;SDS011;6669;42.678;23.332;2023-02-28T05:29:08;16.00;;;10.80;;
13208;SDS011;6669;42.678;23.332;2023-02-28T05:31:36;17.20;;;11.30;;
13208;SDS011;6669;42.678;23.332;2023-02-28T05:34:06;19.17;;;10.80;;
13208;SDS011;6669;42.678;23.332;2023-02-28T05:36:34;18.43;;;11.83;;
13208;SDS011;6669;42.678;23.332;2023-02-28T05:39:05;18.50;;;11.67;;
13208;SDS011;6669;42.678;23.332;2023-02-28T05:41:39;17.73;;;12.20;;
13208;SDS011;6669;42.678;23.332;2023-02-28T05:44:08;17.03;;;12.17;;
13208;SDS011;6669;42.678;23.332;2023-02-28T05:46:36;18.47;;;12.00;;
13208;SDS011;6669;42.678;23.332;2023-02-28T05:49:06;19.00;;;12.13;;
13208;SDS011;6669;42.678;23.332;2023-02-28T05:51:34;19.43;;;11.43;;
13208;SDS011;6669;42.678;23.332;2023-02-28T05:54:06;16.33;;;11.67;;
13208;SDS011;6669;42.678;23.332;2023-02-28T05:56:34;19.27;;;12.63;;
13208;SDS011;6669;42.678;23.332;2023-02-28T05:59:04;19.03;;;12.80;;
13208;SDS011;6669;42.678;23.332;2023-02-28T06:01:32;18.70;;;12.07;;
13208;SDS011;6669;42.678;23.332;2023-02-28T06:04:03;18.93;;;12.37;;
13208;SDS011;6669;42.678;23.332;2023-02-28T06:06:34;19.53;;;11.67;;
13208;SDS011;6669;42.678;23.332;2023-02-28T06:09:03;18.20;;;11.83;;
13208;SDS011;6669;42.678;23.332;2023-02-28T06:11:32;16.63;;;12.20;;
13208;SDS011;6669;42.678;23.332;2023-02-28T06:14:00;20.17;;;12.90;;
13208;SDS011;6669;42.678;23.332;2023-02-28T06:16:30;20.83;;;12.67;;
13208;SDS011;6669;42.678;23.332;2023-02-28T06:19:00;17.43;;;12.27;;
13208;SDS011;6669;42.678;23.332;2023-02-28T06:21:29;16.70;;;12.03;;
13208;SDS011;6669;42.678;23.332;2023-02-28T06:23:59;20.53;;;13.20;;
13208;SDS011;6669;42.678;23.332;2023-02-28T06:26:28;17.47;;;12.13;;
13208;SDS011;6669;42.678;23.332;2023-02-28T06:28:56;22.63;;;13.23;;
13208;SDS011;6669;42.678;23.332;2023-02-28T06:31:24;21.23;;;13.07;;
13208;SDS011;6669;42.678;23.332;2023-02-28T06:33:53;31.27;;;21.57;;
13208;SDS011;6669;42.678;23.332;2023-02-28T06:36:21;20.43;;;12.93;;
13208;SDS011;6669;42.678;23.332;2023-02-28T06:38:49;22.90;;;14.10;;
13208;SDS011;6669;42.678;23.332;2023-02-28T06:41:23;20.27;;;13.37;;
13208;SDS011;6669;42.678;23.332;2023-02-28T06:43:52;21.80;;;13.77;;
13208;SDS011;6669;42.678;23.332;2023-02-28T06:46:20;19.83;;;13.63;;
13208;SDS011;6669;42.678;23.332;2023-02-28T06:48:49;22.00;;;14.13;;
13208;SDS011;6669;42.678;23.332;2023-02-28T06:51:18;22.90;;;14.97;;
13208;SDS011;6669;42.678;23.332;2023-02-28T06:53:48;22.60;;;14.77;;
13208;SDS011;6669;42.678;23.332;2023-02-28T06:56:17;23.47;;;13.90;;
13208;SDS011;6669;42.678;23.332;2023-02-28T06:58:48;21.63;;;13.80;;
13208;SDS011;6669;42.678;23.332;2023-02-28T07:01:18;39.00;;;28.17;;
13208;SDS011;6669;42.678;23.332;2023-02-28T07:03:49;23.70;;;15.37;;
13208;SDS011;6669;42.678;23.332;2023-02-28T07:06:18;22.80;;;14.17;;
13208;SDS011;6669;42.678;23.332;2023-02-28T07:08:49;24.97;;;14.97;;
13208;SDS011;6669;42.678;23.332;2023-02-28T07:11:19;22.27;;;15.10;;
13208;SDS011;6669;42.678;23.332;2023-02-28T07:13:50;23.97;;;14.43;;
13208;SDS011;6669;42.678;23.332;2023-02-28T07:16:18;21.53;;;14.80;;
13208;SDS011;6669;42.678;23.332;2023-02-28T07:18:46;20.73;;;13.43;;
13208;SDS011;6669;42.678;23.332;2023-02-28T07:21:15;19.83;;;12.73;;
13208;SDS011;6669;42.678;23.332;2023-02-28T07:23:43;18.47;;;12.70;;
13208;SDS011;6669;42.678;23.332;2023-02-28T07:26:12;19.67;;;12.27;;
13208;SDS011;6669;42.678;23.332;2023-02-28T07:28:43;24.60;;;13.27;;
13208;SDS011;6669;42.678;23.332;2023-02-28T07:31:15;19.80;;;12.83;;
13208;SDS011;6669;42.678;23.332;2023-02-28T07:33:43;21.50;;;12.57;;
13208;SDS011;6669;42.678;23.332;2023-02-28T07:36:13;16.73;;;12.67;;
13208;SDS011;6669;42.678;23.332;2023-02-28T07:38:46;17.57;;;12.67;;
13208;SDS011;6669;42.678;23.332;2023-02-28T07:41:16;20.00;;;13.40;;
13208;SDS011;6669;42.678;23.332;2023-02-28T07:43:45;15.07;;;11.33;;
13208;SDS011;6669;42.678;23.332;2023-02-28T07:46:16;16.17;;;11.83;;
13208;SDS011;6669;42.678;23.332;2023-02-28T07:48:46;40.63;;;30.03;;
13208;SDS011;6669;42.678;23.332;2023-02-28T07:51:17;16.63;;;12.63;;
13208;SDS011;6669;42.678;23.332;2023-02-28T07:53:45;20.23;;;13.43;;
13208;SDS011;6669;42.678;23.332;2023-02-28T07:56:13;15.03;;;11.50;;
13208;SDS011;6669;42.678;23.332;2023-02-28T07:58:41;15.80;;;11.00;;
13208;SDS011;6669;42.678;23.332;2023-02-28T08:01:09;13.43;;;11.07;;
13208;SDS011;6669;42.678;23.332;2023-02-28T08:03:40;17.23;;;11.20;;
13208;SDS011;6669;42.678;23.332;2023-02-28T08:06:11;17.33;;;11.30;;
13208;SDS011;6669;42.678;23.332;2023-02-28T08:08:43;14.40;;;11.63;;
13208;SDS011;6669;42.678;23.332;2023-02-28T08:11:11;14.57;;;11.90;;
13208;SDS011;6669;42.678;23.332;2023-02-28T08:13:39;18.13;;;12.80;;
13208;SDS011;6669;42.678;23.332;2023-02-28T08:16:08;16.10;;;12.37;;
13208;SDS011;6669;42.678;23.332;2023-02-28T08:18:37;18.53;;;12.13;;
13208;SDS011;6669;42.678;23.332;2023-02-28T08:21:09;15.83;;;12.00;;
13208;SDS011;6669;42.678;23.332;2023-02-28T08:23:37;15.47;;;11.47;;
13208;SDS011;6669;42.678;23.332;2023-02-28T08:26:05;17.63;;;12.13;;
13208;SDS011;6669;42.678;23.332;2023-02-28T08:28:33;33.30;;;25.67;;
13208;SDS011;6669;42.678;23.332;2023-02-28T08:31:01;15.73;;;11.93;;
13208;SDS011;6669;42.678;23.332;2023-02-28T08:33:36;16.90;;;12.50;;
13208;SDS011;6669;42.678;23.332;2023-02-28T08:36:05;16.67;;;11.47;;
13208;SDS011;6669;42.678;23.332;2023-02-28T08:38:36;18.43;;;13.03;;
13208;SDS011;6669;42.678;23.332;2023-02-28T08:41:06;16.40;;;12.50;;
13208;SDS011;6669;42.678;23.332;2023-02-28T08:43:36;17.40;;;13.50;;
13208;SDS011;6669;42.678;23.332;2023-02-28T08:46:05;16.37;;;12.93;;
13208;SDS011;6669;42.678;23.332;2023-02-28T08:48:34;17.57;;;12.60;;
13208;SDS011;6669;42.678;23.332;2023-02-28T08:51:05;21.07;;;12.67;;
13208;SDS011;6669;42.678;23.332;2023-02-28T08:53:37;18.87;;;13.90;;
13208;SDS011;6669;42.678;23.332;2023-02-28T08:56:06;20.00;;;14.83;;
13208;SDS011;6669;42.678;23.332;2023-02-28T08:58:36;43.80;;;29.90;;
13208;SDS011;6669;42.678;23.332;2023-02-28T09:01:08;30.13;;;20.23;;
13208;SDS011;6669;42.678;23.332;2023-02-28T09:03:37;22.67;;;15.20;;
13208;SDS011;6669;42.678;23.332;2023-02-28T09:06:05;21.03;;;14.97;;
13208;SDS011;6669;42.678;23.332;2023-02-28T09:08:33;18.90;;;13.60;;
13208;SDS011;6669;42.678;23.332;2023-02-28T09:11:02;17.23;;;13.40;;
13208;SDS011;6669;42.678;23.332;2023-02-28T09:13:31;19.07;;;12.83;;
13208;SDS011;6669;42.678;23.332;2023-02-28T09:16:00;15.17;;;12.50;;
13208;SDS011;6669;42.678;23.332;2023-02-28T09:18:30;14.90;;;10.53;;
13208;SDS011;6669;42.678;23.332;2023-02-28T09:20:58;14.83;;;10.80;;
13208;SDS011;6669;42.678;23.332;2023-02-28T09:23:26;18.77;;;11.77;;
13208;SDS011;6669;42.678;23.332;2023-02-28T09:25:54;17.73;;;10.30;;
13208;SDS011;6669;42.678;23.332;2023-02-28T09:28:23;17.67;;;12.80;;
13208;SDS011;6669;42.678;23.332;2023-02-28T09:30:52;15.23;;;10.73;;
13208;SDS011;6669;42.678;23.332;2023-02-28T09:33:21;16.90;;;10.40;;
13208;SDS011;6669;42.678;23.332;2023-02-28T09:35:50;19.35;;;9.93;;
13208;SDS011;6669;42.678;23.332;2023-02-28T09:38:24;14.98;;;8.57;;
13208;SDS011;6669;42.678;23.332;2023-02-28T09:40:53;10.37;;;7.93;;
13208;SDS011;6669;42.678;23.332;2023-02-28T09:43:26;13.90;;;8.83;;
13208;SDS011;6669;42.678;23.332;2023-02-28T09:45:59;15.50;;;8.55;;
13208;SDS011;6669;42.678;23.332;2023-02-28T09:48:33;11.53;;;8.00;;
13208;SDS011;6669;42.678;23.332;2023-02-28T09:51:09;12.80;;;8.37;;
13208;SDS011;6669;42.678;23.332;2023-02-28T09:53:43;12.10;;;8.10;;
13208;SDS011;6669;42.678;23.332;2023-02-28T09:56:19;20.80;;;11.95;;
13208;SDS011;6669;42.678;23.332;2023-02-28T09:58:56;12.90;;;8.73;;
13208;SDS011;6669;42.678;23.332;2023-02-28T10:01:29;12.93;;;9.15;;
13208;SDS011;6669;42.678;23.332;2023-02-28T10:04:03;14.57;;;8.63;;
13208;SDS011;6669;42.678;23.332;2023-02-28T10:06:41;11.68;;;8.90;;
13208;SDS011;6669;42.678;23.332;2023-02-28T10:09:14;12.52;;;8.00;;
13208;SDS011;6669;42.678;23.332;2023-02-28T10:11:46;10.80;;;6.88;;
13208;SDS011;6669;42.678;23.332;2023-02-28T10:14:22;12.50;;;7.13;;
13208;SDS011;6669;42.678;23.332;2023-02-28T10:16:54;10.27;;;7.05;;
13208;SDS011;6669;42.678;23.332;2023-02-28T10:19:26;13.48;;;6.95;;
13208;SDS011;6669;42.678;23.332;2023-02-28T10:21:59;10.75;;;7.18;;
13208;SDS011;6669;42.678;23.332;2023-02-28T10:24:32;10.95;;;6.95;;
13208;SDS011;6669;42.678;23.332;2023-02-28T10:27:06;14.07;;;6.63;;
13208;SDS011;6669;42.678;23.332;2023-02-28T10:29:43;13.98;;;7.43;;
13208;SDS011;6669;42.678;23.332;2023-02-28T10:32:13;13.45;;;6.35;;
13208;SDS011;6669;42.678;23.332;2023-02-28T10:34:43;11.13;;;6.50;;
13208;SDS011;6669;42.678;23.332;2023-02-28T10:37:11;11.57;;;6.82;;
13208;SDS011;6669;42.678;23.332;2023-02-28T10:39:42;12.57;;;6.65;;
13208;SDS011;6669;42.678;23.332;2023-02-28T10:42:19;9.63;;;6.20;;
13208;SDS011;6669;42.678;23.332;2023-02-28T10:47:51;10.07;;;5.82;;
13208;SDS011;6669;42.678;23.332;2023-02-28T10:50:26;9.52;;;6.25;;
13208;SDS011;6669;42.678;23.332;2023-02-28T10:53:05;7.90;;;5.90;;
13208;SDS011;6669;42.678;23.332;2023-02-28T10:55:42;11.80;;;6.35;;
13208;SDS011;6669;42.678;23.332;2023-02-28T11:00:59;9.48;;;6.43;;
13208;SDS011;6669;42.678;23.332;2023-02-28T11:03:31;9.55;;;6.30;;
13208;SDS011;6669;42.678;23.332;2023-02-28T11:06:04;10.77;;;7.60;;
13208;SDS011;6669;42.678;23.332;2023-02-28T11:08:34;9.88;;;5.78;;
13208;SDS011;6669;42.678;23.332;2023-02-28T11:11:11;7.00;;;5.65;;
13208;SDS011;6669;42.678;23.332;2023-02-28T11:13:39;9.95;;;6.32;;
13208;SDS011;6669;42.678;23.332;2023-02-28T11:16:10;10.02;;;5.93;;
13208;SDS011;6669;42.678;23.332;2023-02-28T11:18:40;9.18;;;5.90;;
13208;SDS011;6669;42.678;23.332;2023-02-28T11:21:15;9.05;;;5.55;;
13208;SDS011;6669;42.678;23.332;2023-02-28T11:23:48;9.95;;;6.32;;
13208;SDS011;6669;42.678;23.332;2023-02-28T11:29:09;16.85;;;6.57;;
13208;SDS011;6669;42.678;23.332;2023-02-28T11:31:40;9.07;;;6.40;;
13208;SDS011;6669;42.678;23.332;2023-02-28T11:34:24;9.48;;;6.43;;
13208;SDS011;6669;42.678;23.332;2023-02-28T11:36:54;8.85;;;5.78;;
13208;SDS011;6669;42.678;23.332;2023-02-28T11:39:24;10.00;;;6.13;;
13208;SDS011;6669;42.678;23.332;2023-02-28T11:42:00;13.50;;;6.30;;
13208;SDS011;6669;42.678;23.332;2023-02-28T11:44:41;11.32;;;6.05;;
13208;SDS011;6669;42.678;23.332;2023-02-28T11:47:26;8.80;;;5.95;;
13208;SDS011;6669;42.678;23.332;2023-02-28T11:50:07;10.68;;;6.85;;
13208;SDS011;6669;42.678;23.332;2023-02-28T11:52:53;11.63;;;7.50;;
13208;SDS011;6669;42.678;23.332;2023-02-28T11:55:24;9.77;;;6.65;;
13208;SDS011;6669;42.678;23.332;2023-02-28T12:01:01;10.77;;;6.53;;
13208;SDS011;6669;42.678;23.332;2023-02-28T12:03:43;9.75;;;6.70;;
13208;SDS011;6669;42.678;23.332;2023-02-28T12:06:18;11.82;;;6.70;;
13208;SDS011;6669;42.678;23.332;2023-02-28T12:09:00;9.00;;;6.57;;
13208;SDS011;6669;42.678;23.332;2023-02-28T12:11:41;10.30;;;6.63;;
13208;SDS011;6669;42.678;23.332;2023-02-28T12:14:26;11.50;;;7.03;;
13208;SDS011;6669;42.678;23.332;2023-02-28T12:17:16;10.73;;;6.65;;
13208;SDS011;6669;42.678;23.332;2023-02-28T12:19:56;12.13;;;6.25;;
13208;SDS011;6669;42.678;23.332;2023-02-28T12:22:36;9.70;;;6.20;;
13208;SDS011;6669;42.678;23.332;2023-02-28T12:28:13;11.75;;;7.10;;
13208;SDS011;6669;42.678;23.332;2023-02-28T12:30:47;11.07;;;7.22;;
13208;SDS011;6669;42.678;23.332;2023-02-28T12:33:21;16.13;;;6.70;;
13208;SDS011;6669;42.678;23.332;2023-02-28T12:35:57;11.70;;;6.50;;
13208;SDS011;6669;42.678;23.332;2023-02-28T12:38:27;10.65;;;6.45;;
13208;SDS011;6669;42.678;23.332;2023-02-28T12:41:00;11.35;;;6.43;;
13208;SDS011;6669;42.678;23.332;2023-02-28T12:43:31;9.52;;;6.38;;
13208;SDS011;6669;42.678;23.332;2023-02-28T12:46:04;9.57;;;6.57;;
13208;SDS011;6669;42.678;23.332;2023-02-28T12:48:39;14.02;;;7.03;;
13208;SDS011;6669;42.678;23.332;2023-02-28T12:51:12;11.80;;;6.50;;
13208;SDS011;6669;42.678;23.332;2023-02-28T12:53:49;8.38;;;6.38;;
13208;SDS011;6669;42.678;23.332;2023-02-28T12:56:29;12.43;;;6.28;;
13208;SDS011;6669;42.678;23.332;2023-02-28T12:59:04;10.88;;;6.20;;
13208;SDS011;6669;42.678;23.332;2023-02-28T13:01:51;10.35;;;6.20;;
13208;SDS011;6669;42.678;23.332;2023-02-28T13:04:46;12.65;;;6.30;;
13208;SDS011;6669;42.678;23.332;2023-02-28T13:10:38;10.25;;;6.28;;
13208;SDS011;6669;42.678;23.332;2023-02-28T13:13:13;9.75;;;6.25;;
13208;SDS011;6669;42.678;23.332;2023-02-28T13:15:57;9.65;;;6.13;;
13208;SDS011;6669;42.678;23.332;2023-02-28T13:18:31;9.90;;;5.55;;
13208;SDS011;6669;42.678;23.332;2023-02-28T13:21:03;13.20;;;6.85;;
13208;SDS011;6669;42.678;23.332;2023-02-28T13:23:39;13.73;;;6.70;;
13208;SDS011;6669;42.678;23.332;2023-02-28T13:26:23;10.77;;;5.90;;
13208;SDS011;6669;42.678;23.332;2023-02-28T13:29:25;9.57;;;5.95;;
13208;SDS011;6669;42.678;23.332;2023-02-28T13:38:17;11.23;;;6.30;;
13208;SDS011;6669;42.678;23.332;2023-02-28T13:40:51;12.35;;;6.78;;
13208;SDS011;6669;42.678;23.332;2023-02-28T13:43:19;8.45;;;6.15;;
13208;SDS011;6669;42.678;23.332;2023-02-28T13:46:12;8.32;;;5.20;;
13208;SDS011;6669;42.678;23.332;2023-02-28T13:48:40;10.23;;;6.30;;
13208;SDS011;6669;42.678;23.332;2023-02-28T13:51:28;10.55;;;6.35;;
13208;SDS011;6669;42.678;23.332;2023-02-28T13:54:13;12.60;;;6.68;;
13208;SDS011;6669;42.678;23.332;2023-02-28T13:56:54;9.55;;;5.68;;
13208;SDS011;6669;42.678;23.332;2023-02-28T13:59:33;8.70;;;5.90;;
13208;SDS011;6669;42.678;23.332;2023-02-28T14:02:25;9.25;;;5.50;;
13208;SDS011;6669;42.678;23.332;2023-02-28T14:05:05;9.90;;;5.45;;
13208;SDS011;6669;42.678;23.332;2023-02-28T14:07:39;8.65;;;5.53;;
13208;SDS011;6669;42.678;23.332;2023-02-28T14:10:20;9.85;;;5.05;;
13208;SDS011;6669;42.678;23.332;2023-02-28T14:13:03;10.35;;;5.10;;
13208;SDS011;6669;42.678;23.332;2023-02-28T14:15:40;10.23;;;5.63;;
13208;SDS011;6669;42.678;23.332;2023-02-28T14:18:19;10.05;;;5.32;;
13208;SDS011;6669;42.678;23.332;2023-02-28T14:20:53;10.00;;;5.97;;
13208;SDS011;6669;42.678;23.332;2023-02-28T14:23:31;8.57;;;5.35;;
13208;SDS011;6669;42.678;23.332;2023-02-28T14:26:19;7.47;;;5.38;;
13208;SDS011;6669;42.678;23.332;2023-02-28T14:29:05;10.93;;;6.50;;
13208;SDS011;6669;42.678;23.332;2023-02-28T14:31:48;12.20;;;7.95;;
13208;SDS011;6669;42.678;23.332;2023-02-28T14:34:35;14.05;;;7.53;;
13208;SDS011;6669;42.678;23.332;2023-02-28T14:37:10;9.25;;;6.03;;
13208;SDS011;6669;42.678;23.332;2023-02-28T14:39:43;9.20;;;6.30;;
13208;SDS011;6669;42.678;23.332;2023-02-28T14:42:28;9.73;;;5.75;;
13208;SDS011;6669;42.678;23.332;2023-02-28T14:44:58;11.65;;;5.65;;
13208;SDS011;6669;42.678;23.332;2023-02-28T14:47:27;15.23;;;6.03;;
13208;SDS011;6669;42.678;23.332;2023-02-28T14:50:02;7.68;;;5.30;;
13208;SDS011;6669;42.678;23.332;2023-02-28T14:52:32;9.48;;;5.65;;
13208;SDS011;6669;42.678;23.332;2023-02-28T14:55:00;11.27;;;6.85;;
13208;SDS011;6669;42.678;23.332;2023-02-28T14:57:32;10.68;;;4.95;;
13208;SDS011;6669;42.678;23.332;2023-02-28T15:00:03;8.88;;;5.10;;
13208;SDS011;6669;42.678;23.332;2023-02-28T15:02:37;9.45;;;5.40;;
13208;SDS011;6669;42.678;23.332;2023-02-28T15:08:00;8.57;;;5.10;;
13208;SDS011;6669;42.678;23.332;2023-02-28T15:10:31;8.98;;;4.80;;
13208;SDS011;6669;42.678;23.332;2023-02-28T15:13:01;10.32;;;5.25;;
13208;SDS011;6669;42.678;23.332;2023-02-28T15:15:35;12.52;;;5.50;;
13208;SDS011;6669;42.678;23.332;2023-02-28T15:18:29;7.33;;;4.90;;
13208;SDS011;6669;42.678;23.332;2023-02-28T15:21:05;9.07;;;5.97;;
13208;SDS011;6669;42.678;23.332;2023-02-28T15:23:36;9.23;;;5.85;;
13208;SDS011;6669;42.678;23.332;2023-02-28T15:26:05;11.43;;;6.18;;
13208;SDS011;6669;42.678;23.332;2023-02-28T15:28:36;6.97;;;5.07;;
13208;SDS011;6669;42.678;23.332;2023-02-28T15:31:19;7.20;;;4.40;;
13208;SDS011;6669;42.678;23.332;2023-02-28T15:33:53;7.27;;;4.43;;
13208;SDS011;6669;42.678;23.332;2023-02-28T15:36:25;7.53;;;5.40;;
13208;SDS011;6669;42.678;23.332;2023-02-28T15:38:58;7.07;;;4.70;;